CYCG

Castlegar / West Kootenay Regional Airport

Castlegar, British Columbia, Canada
METAR CYCG 141300Z 00000KT 4SM FU SCT260 09/06 A3005 RMK FU2CI2 SLP177
Observed Flight Rules
Aug-14 @ 13:00 UTC (41 minutes ago) Marginal Visual Flight Rules
Visibility Clouds Conditions
4 miles
  • Scattered at 26,000' AGL
  • Smoke
Temperatures Readings
Current 9°C / 48°F
Dewpoint 6°C / 43°F
Humidity 82%
Altimeter 30.05" Hg
Pressure 1017.7 hPa
Elevation 495
METAR CYCG 141300Z 00000KT 4SM FU SCT260 09/06 A3005 RMK FU2CI2 SLP177
Observed Flight Rules
Aug-14 @ 13:00 UTC
(41 minutes ago)
MVFR
Clouds
  • Scattered at 26,000' AGL
Conditions
  • Smoke
Temperature Dewpoint
9°C / 48°F 6°C / 43°F
Humidity Altimeter Pressure
82% 30.05" Hg 1017.7 hPa